Time;durP1;ratioP1;P1;durP2;ratioP2;P2;SDS_P1;SDS_P2;PMS_P1;PMS_P2;Temp;Humidity;BMP_temperature;BMP_pressure;BME280_temperature;BME280_humidity;BME280_pressure;Samples;Min_cycle;Max_cycle;Signal;HPM_P1;HPM_P2
2021/04/19 00:01:35;;;;;;;20.48;10.70;;;;;;;4.77;85.45;98755.28;4986353;28;20042;-74
2021/04/19 00:04:01;;;;;;;20.08;10.95;;;;;;;4.71;85.25;98756.22;4990118;28;20034;-74
2021/04/19 00:06:26;;;;;;;17.23;10.25;;;;;;;4.67;85.36;98759.72;4987282;28;20065;-74
2021/04/19 00:08:52;;;;;;;21.67;10.68;;;;;;;4.60;85.83;98750.28;4987574;28;20097;-74
2021/04/19 00:11:17;;;;;;;19.13;9.25;;;;;;;4.51;86.24;98750.41;4988828;28;20030;-74
2021/04/19 00:13:43;;;;;;;13.55;7.90;;;;;;;4.40;86.50;98747.94;4985158;28;20041;-74
2021/04/19 00:16:09;;;;;;;15.23;9.30;;;;;;;4.28;87.19;98740.28;4985656;28;20234;-74
2021/04/19 00:18:34;;;;;;;15.48;8.27;;;;;;;4.21;87.21;98749.00;4980316;28;20030;-74
2021/04/19 00:21:00;;;;;;;16.40;8.70;;;;;;;4.14;87.31;98747.34;4987844;28;20022;-74
2021/04/19 00:23:25;;;;;;;15.10;8.40;;;;;;;4.07;87.37;98750.88;5004539;28;20554;-74
2021/04/19 00:25:51;;;;;;;20.88;9.75;;;;;;;4.04;87.17;98753.47;4987341;28;20042;-74
2021/04/19 00:28:16;;;;;;;19.25;8.27;;;;;;;3.95;87.28;98748.41;4986165;28;20096;-74
2021/04/19 00:30:42;;;;;;;16.45;8.55;;;;;;;3.93;87.98;98748.41;4986884;28;20034;-74
2021/04/19 00:33:07;;;;;;;16.27;8.50;;;;;;;3.89;87.60;98754.47;4988508;28;20026;-74
2021/04/19 00:35:33;;;;;;;14.93;9.45;;;;;;;3.88;87.96;98745.84;4975331;28;20034;-74
2021/04/19 00:37:58;;;;;;;15.38;8.85;;;;;;;3.83;87.35;98747.63;4987065;28;20041;-74
2021/04/19 00:40:23;;;;;;;20.92;9.68;;;;;;;3.83;88.04;98746.75;4988576;28;20030;-74
2021/04/19 00:42:52;;;;;;;17.15;8.73;;;;;;;3.78;88.13;98741.63;4989423;28;20014;-74
2021/04/19 00:45:18;;;;;;;14.43;8.88;;;;;;;3.75;87.70;98745.97;4987633;28;20044;-74
2021/04/19 00:47:47;;;;;;;16.90;9.27;;;;;;;3.74;88.06;98739.09;4990450;28;20562;-74
2021/04/19 00:50:26;;;;;;;13.65;8.00;;;;;;;3.71;88.05;98733.94;4986294;28;20149;-74
2021/04/19 00:52:52;;;;;;;15.80;9.20;;;;;;;3.69;88.17;98744.28;4989029;28;20037;-74
2021/04/19 00:55:20;;;;;;;19.30;8.73;;;;;;;3.70;88.23;98739.97;4991328;28;20026;-74
2021/04/19 00:57:46;;;;;;;15.77;8.95;;;;;;;3.69;88.19;98728.75;4995747;28;20057;-74
2021/04/19 01:00:27;;;;;;;18.17;8.63;;;;;;;3.69;87.99;98727.91;4988797;28;20057;-74
2021/04/19 01:02:54;;;;;;;19.75;10.35;;;;;;;3.67;87.45;98735.69;4987157;28;20121;-74
2021/04/19 01:05:35;;;;;;;21.55;10.85;;;;;;;3.66;87.20;98728.81;4983397;28;20392;-74
2021/04/19 01:08:01;;;;;;;19.63;10.80;;;;;;;3.70;87.31;98730.47;4989326;28;20027;-74
2021/04/19 01:10:27;;;;;;;18.42;9.63;;;;;;;3.71;87.92;98734.78;4989354;28;20171;-74
2021/04/19 01:12:52;;;;;;;15.93;9.07;;;;;;;3.69;87.64;98727.91;4990329;28;20022;-74
2021/04/19 01:15:18;;;;;;;18.50;8.95;;;;;;;3.72;87.40;98730.47;4992301;28;20116;-74
2021/04/19 01:17:46;;;;;;;21.20;9.52;;;;;;;3.72;87.32;98731.34;4990685;28;20022;-74
2021/04/19 01:20:16;;;;;;;18.20;9.70;;;;;;;3.70;87.70;98725.31;4988929;28;20030;-74
2021/04/19 01:22:44;;;;;;;23.15;11.32;;;;;;;3.75;87.46;98731.31;4996050;28;20125;-74
2021/04/19 01:25:16;;;;;;;17.52;10.07;;;;;;;3.72;87.63;98723.56;4991137;28;20097;-74
2021/04/19 01:27:42;;;;;;;20.23;9.75;;;;;;;3.72;87.40;98722.72;4989641;28;20026;-74
2021/04/19 01:30:08;;;;;;;16.27;9.55;;;;;;;3.69;87.74;98725.31;4995370;28;20089;-74
2021/04/19 01:32:34;;;;;;;19.20;9.63;;;;;;;3.65;87.90;98726.25;4997957;28;20050;-74
2021/04/19 01:35:00;;;;;;;16.52;8.68;;;;;;;3.65;87.52;98727.09;4990590;28;20034;-74
2021/04/19 01:37:25;;;;;;;20.13;10.50;;;;;;;3.63;87.90;98717.63;4992869;28;20025;-74
2021/04/19 01:39:51;;;;;;;16.60;8.30;;;;;;;3.57;87.57;98726.28;4992311;28;20140;-74
2021/04/19 01:42:17;;;;;;;18.50;10.10;;;;;;;3.59;88.10;98721.97;4992492;28;20053;-74
2021/04/19 01:44:42;;;;;;;17.38;9.55;;;;;;;3.58;87.53;98720.25;4991195;28;20034;-74
2021/04/19 01:47:08;;;;;;;14.95;8.75;;;;;;;3.53;88.07;98722.84;4991564;28;20056;-74
2021/04/19 01:49:33;;;;;;;18.00;7.75;;;;;;;3.47;87.38;98717.75;4973340;28;20366;-74
2021/04/19 01:52:02;;;;;;;15.38;8.98;;;;;;;3.47;87.63;98725.50;4984716;28;20081;-74
2021/04/19 01:54:27;;;;;;;19.55;9.82;;;;;;;3.48;87.42;98723.78;4991052;28;20109;-74
2021/04/19 01:56:53;;;;;;;19.85;8.80;;;;;;;3.44;87.80;98727.25;4993293;28;20105;-74
2021/04/19 01:59:20;;;;;;;15.43;8.50;;;;;;;3.49;87.80;98728.09;4993416;28;20044;-74
2021/04/19 02:02:07;;;;;;;15.70;8.13;;;;;;;3.53;88.21;98725.44;4990464;28;20045;-74
2021/04/19 02:04:54;;;;;;;13.88;8.85;;;;;;;3.61;87.74;98719.38;4982698;28;20022;-74
2021/04/19 02:07:37;;;;;;;20.25;9.35;;;;;;;3.64;87.92;98720.22;4973068;28;20231;-74
2021/04/19 02:10:06;;;;;;;16.77;10.02;;;;;;;3.72;87.30;98722.72;5001153;28;20034;-74
2021/04/19 02:13:04;;;;;;;17.50;9.25;;;;;;;3.78;87.69;98715.78;4996742;28;20510;-74
2021/04/19 02:15:49;;;;;;;17.55;9.68;;;;;;;3.84;86.95;98720.00;4987953;28;20026;-74
2021/04/19 02:18:16;;;;;;;19.88;9.98;;;;;;;3.87;87.21;98712.22;5001544;28;20051;-74
2021/04/19 02:20:50;;;;;;;17.90;9.68;;;;;;;3.92;87.16;98709.63;4993880;28;20029;-74
2021/04/19 02:23:26;;;;;;;15.70;9.15;;;;;;;3.88;86.80;98709.63;4995704;28;20034;-74
2021/04/19 02:26:01;;;;;;;16.25;9.77;;;;;;;3.86;87.11;98707.94;4989455;28;20041;-74
2021/04/19 02:28:36;;;;;;;17.05;10.10;;;;;;;3.81;86.90;98712.31;4990330;28;20522;-74
2021/04/19 02:31:07;;;;;;;15.13;9.52;;;;;;;3.77;86.73;98715.78;4992370;28;20045;-74
2021/04/19 02:33:37;;;;;;;14.82;9.05;;;;;;;3.76;87.39;98708.91;4990842;28;20034;-74
2021/04/19 02:36:07;;;;;;;15.85;8.07;;;;;;;3.72;87.16;98708.06;4993762;28;20068;-74
2021/04/19 02:38:35;;;;;;;15.70;9.48;;;;;;;3.73;87.09;98709.78;4997519;28;20034;-75
2021/04/19 02:41:08;;;;;;;14.95;9.13;;;;;;;3.76;87.38;98703.72;4989436;28;20029;-75
2021/04/19 02:43:35;;;;;;;15.02;8.18;;;;;;;3.79;87.11;98706.28;4978535;28;20124;-74
2021/04/19 02:46:05;;;;;;;19.65;10.50;;;;;;;3.83;86.83;98695.88;4991313;28;20066;-74
2021/04/19 02:48:34;;;;;;;20.08;10.73;;;;;;;3.87;86.48;98701.88;4989570;28;20033;-74
2021/04/19 02:51:01;;;;;;;19.83;11.35;;;;;;;3.87;86.66;98696.72;4987950;28;20038;-74
2021/04/19 02:53:27;;;;;;;;;;;;;;;3.92;87.12;98700.13;4989209;28;20053;-74
2021/04/19 02:55:56;;;;;;;16.90;10.57;;;;;;;3.94;86.70;98702.69;4990488;28;19927;-74
2021/04/19 02:58:40;;;;;;;21.52;10.23;;;;;;;3.94;86.61;98702.69;4972990;28;20031;-72
2021/04/19 03:01:08;;;;;;;15.43;9.05;;;;;;;3.98;86.63;98699.19;4990226;28;20477;-73
2021/04/19 03:03:36;;;;;;;20.48;11.30;;;;;;;3.96;87.06;98696.66;4989150;28;20108;-73
2021/04/19 03:06:04;;;;;;;19.15;9.38;;;;;;;3.97;86.47;98697.50;4989410;28;20034;-73
2021/04/19 03:08:31;;;;;;;;;;;;;;;3.97;86.92;98702.69;5004848;28;20030;-73
2021/04/19 03:11:02;;;;;;;21.88;11.43;;;;;;;3.93;86.54;98696.66;4990222;28;19921;-73
2021/04/19 03:13:33;;;;;;;19.25;10.63;;;;;;;3.92;86.67;98707.03;4982182;28;20026;-73
2021/04/19 03:16:03;;;;;;;20.92;10.68;;;;;;;3.89;87.23;98705.31;4984437;28;20117;-73
2021/04/19 03:18:33;;;;;;;22.08;12.05;;;;;;;3.89;86.64;98695.84;4993781;28;20052;-73
2021/04/19 03:21:05;;;;;;;18.67;10.73;;;;;;;3.86;86.79;98701.03;4989823;28;20022;-73
2021/04/19 03:23:33;;;;;;;18.67;10.18;;;;;;;3.86;87.35;98702.75;4992866;28;20113;-73
2021/04/19 03:26:00;;;;;;;17.80;10.73;;;;;;;3.86;87.55;98695.84;4988592;28;20105;-73
2021/04/19 03:28:27;;;;;;;26.25;10.32;;;;;;;3.87;87.50;98700.16;4989074;28;20164;-73
2021/04/19 03:30:52;;;;;;;19.47;11.07;;;;;;;3.89;87.08;98702.72;4986474;28;20041;-73
2021/04/19 03:33:20;;;;;;;18.80;11.98;;;;;;;3.88;87.60;98701.88;4989689;28;20034;-73
2021/04/19 03:35:46;;;;;;;21.83;12.25;;;;;;;3.87;87.04;98702.75;4994322;28;20030;-74
2021/04/19 03:38:18;;;;;;;23.45;12.27;;;;;;;3.94;87.04;98705.28;4990177;28;20466;-74
2021/04/19 03:40:45;;;;;;;18.73;11.77;;;;;;;3.97;87.27;98697.50;4989344;28;20049;-74
2021/04/19 03:43:15;;;;;;;19.67;11.88;;;;;;;4.02;86.95;98698.28;4989450;28;20026;-74
2021/04/19 03:45:42;;;;;;;21.50;12.38;;;;;;;4.05;86.93;98700.84;4992630;28;20064;-74
2021/04/19 03:48:14;;;;;;;20.33;11.88;;;;;;;4.10;87.00;98694.78;4990048;28;20034;-73
2021/04/19 03:50:46;;;;;;;22.35;10.93;;;;;;;4.14;86.50;98698.16;4991706;28;20042;-74
2021/04/19 03:53:13;;;;;;;17.40;10.00;;;;;;;4.17;86.14;98686.06;4993312;28;20034;-73
2021/04/19 03:55:40;;;;;;;18.75;10.32;;;;;;;4.24;85.92;98692.03;4991058;28;20073;-73
2021/04/19 03:58:09;;;;;;;21.58;12.18;;;;;;;4.27;86.51;98693.75;4994509;28;20034;-73
2021/04/19 04:00:39;;;;;;;21.90;11.02;;;;;;;4.29;85.97;98692.81;4987380;28;20026;-73
2021/04/19 04:03:05;;;;;;;20.75;10.70;;;;;;;4.32;85.75;98697.13;4994097;28;20030;-73
2021/04/19 04:05:30;;;;;;;18.98;9.93;;;;;;;4.32;86.28;98695.38;4996332;28;20049;-74
2021/04/19 04:07:56;;;;;;;84.68;30.50;;;;;;;4.34;86.31;98691.03;4989597;28;20027;-73
2021/04/19 04:10:22;;;;;;;59.72;23.77;;;;;;;4.36;85.87;98688.44;4984960;28;20034;-73
2021/04/19 04:12:48;;;;;;;49.72;22.40;;;;;;;4.38;85.99;98687.56;4988928;28;20030;-74
2021/04/19 04:15:14;;;;;;;38.42;17.75;;;;;;;4.38;86.40;98684.97;4988795;28;20037;-73
2021/04/19 04:17:39;;;;;;;36.80;16.10;;;;;;;4.41;85.99;98691.84;4986822;28;20034;-73
2021/04/19 04:20:05;;;;;;;32.17;14.85;;;;;;;4.38;86.05;98677.19;4990824;28;20080;-73
2021/04/19 04:22:32;;;;;;;22.65;12.90;;;;;;;4.43;86.29;98692.69;4983516;28;20468;-73
2021/04/19 04:24:58;;;;;;;21.15;12.23;;;;;;;4.44;86.46;98689.19;4988357;28;20129;-73
2021/04/19 04:27:26;;;;;;;23.02;12.27;;;;;;;4.46;86.25;98697.81;4984282;28;20038;-73
2021/04/19 04:29:54;;;;;;;23.63;11.93;;;;;;;4.44;86.61;98690.06;4970243;28;20026;-73
2021/04/19 04:32:20;;;;;;;24.52;13.55;;;;;;;4.45;86.43;98690.91;4976902;28;20128;-73
2021/04/19 04:34:47;;;;;;;29.38;12.23;;;;;;;4.46;86.21;98703.84;4990308;28;20137;-73
2021/04/19 04:37:12;;;;;;;;;;;;;;;4.48;85.64;98696.91;4989894;28;20037;-73
2021/04/19 04:39:38;;;;;;;21.40;11.85;;;;;;;4.47;85.44;98694.34;4988504;28;19921;-73
2021/04/19 04:42:05;;;;;;;21.00;12.23;;;;;;;4.47;85.30;98700.38;4995512;28;20085;-73
2021/04/19 04:44:37;;;;;;;21.13;12.23;;;;;;;4.52;85.84;98688.25;4989073;28;20041;-74
2021/04/19 04:47:21;;;;;;;22.15;11.95;;;;;;;4.57;85.70;98696.81;4992357;28;20054;-74
2021/04/19 04:49:53;;;;;;;19.75;12.02;;;;;;;4.62;85.97;98693.31;4983637;28;20034;-73
2021/04/19 04:52:20;;;;;;;23.42;10.90;;;;;;;4.66;85.52;98692.41;4993661;28;20117;-73
2021/04/19 04:54:50;;;;;;;24.20;12.80;;;;;;;4.68;86.02;98696.69;4990943;28;20030;-73
2021/04/19 04:57:24;;;;;;;22.77;11.50;;;;;;;4.69;86.04;98695.81;4992772;28;20045;-73
2021/04/19 04:59:54;;;;;;;22.75;11.70;;;;;;;4.74;85.63;98698.31;4991216;28;20113;-73
2021/04/19 05:02:22;;;;;;;22.23;10.88;;;;;;;4.74;85.68;98698.31;4996364;28;20404;-73
2021/04/19 05:04:49;;;;;;;22.27;12.60;;;;;;;4.75;85.52;98692.25;4999971;28;20045;-74
2021/04/19 05:07:15;;;;;;;;;;;;;;;4.79;85.48;98699.13;4990801;28;20037;-74
2021/04/19 05:09:44;;;;;;;21.20;12.20;;;;;;;4.81;86.35;98708.59;4991032;28;19948;-73
2021/04/19 05:12:10;;;;;;;25.45;12.98;;;;;;;4.80;86.28;98701.69;4994041;28;20377;-74
2021/04/19 05:14:37;;;;;;;26.70;14.27;;;;;;;4.80;86.51;98700.84;4999521;28;20030;-74
2021/04/19 05:17:02;;;;;;;19.33;12.07;;;;;;;4.83;86.62;98704.25;4992346;28;20121;-74
2021/04/19 05:19:28;;;;;;;24.95;13.55;;;;;;;4.89;86.62;98706.75;4991441;28;20113;-74
2021/04/19 05:21:53;;;;;;;20.98;11.70;;;;;;;4.92;85.85;98713.63;4991078;28;20050;-74
2021/04/19 05:24:19;;;;;;;21.27;12.93;;;;;;;4.95;85.52;98714.47;4992263;28;20033;-74
2021/04/19 05:26:44;;;;;;;19.83;12.30;;;;;;;5.00;85.47;98711.81;4990178;28;20030;-74
2021/04/19 05:29:09;;;;;;;23.42;12.48;;;;;;;5.01;85.40;98705.75;4991725;28;20053;-73
2021/04/19 05:31:35;;;;;;;19.75;11.10;;;;;;;5.04;85.20;98710.03;4987965;28;20499;-74
2021/04/19 05:34:00;;;;;;;25.02;11.95;;;;;;;5.10;84.66;98712.53;4990951;28;20028;-74
2021/04/19 05:36:27;;;;;;;29.77;13.52;;;;;;;5.16;84.60;98715.06;4989560;28;20034;-73
2021/04/19 05:38:52;;;;;;;21.95;12.75;;;;;;;5.22;84.45;98704.56;4974706;28;20105;-74
2021/04/19 05:41:20;;;;;;;19.25;10.50;;;;;;;5.24;84.49;98708.88;4974706;28;20019;-73
2021/04/19 05:43:46;;;;;;;24.33;12.55;;;;;;;5.30;84.08;98711.38;4996151;28;20081;-74
2021/04/19 05:46:13;;;;;;;24.98;12.30;;;;;;;5.33;84.14;98705.28;4984934;28;20055;-74
2021/04/19 05:48:40;;;;;;;21.67;11.27;;;;;;;5.38;84.22;98708.66;4999219;28;20136;-73
2021/04/19 05:51:12;;;;;;;26.88;12.25;;;;;;;5.52;83.58;98711.88;4989862;28;20034;-74
2021/04/19 05:53:40;;;;;;;18.02;11.52;;;;;;;5.58;83.35;98705.75;4994796;28;20046;-73
2021/04/19 05:56:11;;;;;;;21.80;11.93;;;;;;;5.68;83.29;98715.09;4991515;28;20080;-73
2021/04/19 05:58:53;;;;;;;24.52;13.18;;;;;;;5.79;82.95;98715.81;4990323;28;20023;-74
2021/04/19 06:01:22;;;;;;;25.00;15.02;;;;;;;5.89;82.44;98712.19;4990927;28;20100;-74
2021/04/19 06:03:57;;;;;;;29.38;16.02;;;;;;;5.93;82.35;98713.84;4990837;28;20524;-74
2021/04/19 06:06:56;;;;;;;28.05;17.42;;;;;;;5.97;81.91;98712.91;4990313;28;20209;-75
2021/04/19 06:09:29;;;;;;;36.90;20.33;;;;;;;6.09;81.32;98721.38;4976737;28;20174;-74
2021/04/19 06:11:58;;;;;;;41.03;22.52;;;;;;;6.14;81.19;98719.53;4971045;28;20030;-73
2021/04/19 06:14:30;;;;;;;39.05;20.80;;;;;;;6.23;81.47;98719.38;4976863;28;20031;-73
2021/04/19 06:16:59;;;;;;;34.53;20.48;;;;;;;6.33;80.63;98719.19;4972525;28;20030;-74
2021/04/19 06:19:26;;;;;;;34.40;19.15;;;;;;;6.36;80.80;98723.47;4972830;28;20026;-73
2021/04/19 06:21:53;;;;;;;35.40;18.98;;;;;;;6.29;80.43;98719.25;4971956;28;20038;-73
2021/04/19 06:24:18;;;;;;;40.47;23.30;;;;;;;6.12;80.84;98729.94;4973585;28;20081;-73
2021/04/19 06:26:44;;;;;;;34.00;20.35;;;;;;;6.09;81.86;98727.44;4994831;28;20121;-74
2021/04/19 06:29:13;;;;;;;40.53;20.90;;;;;;;6.08;82.40;98727.44;4992803;28;20038;-73
2021/04/19 06:31:47;;;;;;;38.38;18.30;;;;;;;6.06;82.10;98729.22;4987040;28;20033;-73
2021/04/19 06:34:15;;;;;;;31.00;16.90;;;;;;;5.98;82.25;98727.59;4990699;28;20085;-74
2021/04/19 06:36:42;;;;;;;36.60;18.85;;;;;;;5.95;82.52;98729.41;4989727;28;20025;-74
2021/04/19 06:39:11;;;;;;;34.50;18.23;;;;;;;5.96;82.74;98729.34;4992542;28;20475;-73
2021/04/19 06:41:37;;;;;;;33.17;18.35;;;;;;;5.98;82.74;98737.13;4993735;28;20026;-74
2021/04/19 06:44:04;;;;;;;26.23;17.00;;;;;;;5.96;83.14;98734.53;4991123;28;20299;-75
2021/04/19 06:46:32;;;;;;;30.80;17.60;;;;;;;5.93;83.27;98746.75;4986723;28;20030;-74
2021/04/19 06:48:57;;;;;;;;;;;;;;;5.97;83.83;98738.84;4989828;28;20121;-74
2021/04/19 06:51:23;;;;;;;32.17;17.77;;;;;;;5.94;84.38;98741.53;4989545;28;19972;-75
2021/04/19 06:53:53;;;;;;;29.60;17.45;;;;;;;5.87;84.04;98739.88;4991175;28;20121;-75
2021/04/19 06:56:25;;;;;;;31.27;17.77;;;;;;;5.85;84.50;98740.78;4992963;28;20037;-75
2021/04/19 06:58:56;;;;;;;33.95;17.92;;;;;;;5.76;84.34;98741.78;4990177;28;20042;-75
2021/04/19 07:01:25;;;;;;;30.23;16.60;;;;;;;5.74;84.84;98738.38;4990834;28;20022;-77
2021/04/19 07:04:12;;;;;;;34.17;17.67;;;;;;;5.68;85.04;98741.03;5004112;28;20112;-75
2021/04/19 07:06:42;;;;;;;34.40;17.77;;;;;;;5.66;85.58;98741.06;4971912;28;20117;-74
2021/04/19 07:09:27;;;;;;;33.42;17.45;;;;;;;5.70;85.63;98736.69;4979618;28;20338;-75
2021/04/19 07:12:17;;;;;;;29.45;15.52;;;;;;;5.76;85.78;98744.38;4980097;28;20037;-74
2021/04/19 07:14:48;;;;;;;30.48;16.63;;;;;;;5.77;85.03;98740.06;4991854;28;20022;-75
2021/04/19 07:17:14;;;;;;;28.40;16.58;;;;;;;5.80;85.67;98743.47;4989170;28;20045;-76
2021/04/19 07:19:39;;;;;;;35.08;20.63;;;;;;;5.71;84.25;98748.78;4986045;28;20026;-74
2021/04/19 07:22:08;;;;;;;32.03;17.92;;;;;;;5.77;84.17;98740.91;4983160;28;20086;-75
2021/04/19 07:24:38;;;;;;;38.90;19.88;;;;;;;5.84;84.32;98745.09;4982180;28;20835;-74
2021/04/19 07:27:04;;;;;;;37.55;18.42;;;;;;;5.95;84.30;98725.06;4984095;28;20125;-74
2021/04/19 07:29:30;;;;;;;38.63;21.58;;;;;;;5.97;84.36;98733.66;4985706;28;20681;-76
2021/04/19 07:32:00;;;;;;;34.85;17.63;;;;;;;6.07;84.01;98720.53;4986681;28;20536;-74
2021/04/19 07:34:32;;;;;;;32.00;18.15;;;;;;;6.11;83.09;98719.63;4986671;28;20087;-75
2021/04/19 07:36:59;;;;;;;37.35;20.13;;;;;;;6.03;82.78;98716.28;4988392;28;20472;-74
2021/04/19 07:39:27;;;;;;;35.45;19.38;;;;;;;6.06;83.06;98718.81;4988097;28;20022;-75
2021/04/19 07:41:57;;;;;;;32.95;18.58;;;;;;;6.21;83.48;98718.56;4985943;28;20053;-75
2021/04/19 07:44:43;;;;;;;34.75;20.02;;;;;;;6.18;83.06;98722.06;4987543;28;20113;-75
2021/04/19 07:47:41;;;;;;;31.33;15.50;;;;;;;6.23;82.70;98721.97;4987039;28;20053;-75
2021/04/19 07:50:07;;;;;;;34.17;18.30;;;;;;;6.14;82.84;98716.94;4987555;28;20100;-76
2021/04/19 07:52:48;;;;;;;32.10;18.08;;;;;;;6.04;82.39;98718.00;4992792;28;20027;-75
2021/04/19 07:55:18;;;;;;;32.60;18.88;;;;;;;5.87;82.20;98719.09;4990824;28;20058;-74
2021/04/19 07:57:46;;;;;;;35.72;18.15;;;;;;;5.89;82.81;98725.16;4990907;28;20030;-74
2021/04/19 08:00:22;;;;;;;35.97;18.83;;;;;;;5.97;83.75;98725.03;4986812;28;20471;-75
2021/04/19 08:02:56;;;;;;;32.33;17.58;;;;;;;5.99;84.28;98724.13;4982183;28;20034;-74
2021/04/19 08:05:37;;;;;;;30.65;16.83;;;;;;;6.10;84.68;98728.28;4986821;28;20568;-74
2021/04/19 08:08:03;;;;;;;46.13;21.45;;;;;;;6.09;84.56;98726.56;4987486;28;20030;-73
2021/04/19 08:10:29;;;;;;;32.97;17.38;;;;;;;6.18;84.90;98724.66;4987325;28;20049;-74
2021/04/19 08:13:04;;;;;;;36.13;17.17;;;;;;;6.27;84.65;98723.63;4982118;28;20049;-74
2021/04/19 08:15:32;;;;;;;36.95;20.85;;;;;;;6.30;84.36;98729.63;4981153;28;20132;-73
2021/04/19 08:18:05;;;;;;;31.75;18.10;;;;;;;6.36;84.41;98726.06;4986897;28;20034;-74
2021/04/19 08:20:31;;;;;;;39.83;19.50;;;;;;;6.39;83.86;98725.16;4987221;28;20022;-73
2021/04/19 08:23:10;;;;;;;36.90;20.98;;;;;;;6.45;83.60;98731.06;4980735;28;20030;-74
2021/04/19 08:25:38;;;;;;;32.00;16.98;;;;;;;6.54;83.83;98725.72;4980977;28;20066;-74
2021/04/19 08:28:33;;;;;;;34.10;16.50;;;;;;;6.67;83.85;98729.78;4982685;28;20382;-74
2021/04/19 08:31:00;;;;;;;30.17;15.65;;;;;;;6.72;83.84;98725.31;4986994;28;20038;-74
2021/04/19 08:33:27;;;;;;;30.17;16.50;;;;;;;6.78;83.84;98729.56;4990059;28;20877;-74
2021/04/19 08:35:54;;;;;;;38.03;19.70;;;;;;;6.78;83.26;98729.56;4985831;28;20077;-73
2021/04/19 08:38:21;;;;;;;30.27;16.80;;;;;;;6.89;83.45;98729.31;4993145;28;20507;-73
2021/04/19 08:40:50;;;;;;;33.35;16.50;;;;;;;6.98;82.93;98727.41;4986266;28;20045;-74
2021/04/19 08:43:19;;;;;;;31.45;17.05;;;;;;;6.99;82.57;98742.13;4983918;28;20388;-73
2021/04/19 08:45:45;;;;;;;34.72;18.75;;;;;;;7.02;82.42;98736.00;4994313;28;20032;-74
2021/04/19 08:48:12;;;;;;;30.75;16.58;;;;;;;7.12;82.55;98737.50;4980573;28;20027;-73
2021/04/19 08:50:42;;;;;;;28.95;15.10;;;;;;;7.18;82.09;98742.56;4977937;28;20038;-74
2021/04/19 08:53:15;;;;;;;31.95;16.10;;;;;;;7.19;82.44;98740.81;4983987;28;20027;-73
2021/04/19 08:55:42;;;;;;;34.78;20.13;;;;;;;7.15;81.47;98739.19;4992639;28;20030;-74
2021/04/19 08:58:09;;;;;;;35.57;19.27;;;;;;;7.12;80.98;98741.84;4987749;28;20061;-74
2021/04/19 09:00:38;;;;;;;34.63;17.20;;;;;;;7.17;81.16;98746.06;4987727;28;20022;-73
2021/04/19 09:03:05;;;;;;;31.70;16.40;;;;;;;7.29;80.90;98738.00;4987517;28;20030;-74
2021/04/19 09:05:34;;;;;;;30.80;17.43;;;;;;;7.14;80.45;98738.34;4984443;28;20035;-74
2021/04/19 09:08:06;;;;;;;31.42;18.30;;;;;;;7.17;79.18;98740.03;4987165;28;20101;-74
2021/04/19 09:11:14;;;;;;;32.38;17.30;;;;;;;7.13;80.10;98741.81;4985595;28;20090;-73
2021/04/19 09:13:43;;;;;;;36.42;19.02;;;;;;;7.05;80.65;98747.16;4981649;28;20054;-73
2021/04/19 09:16:22;;;;;;;33.55;18.23;;;;;;;7.10;81.14;98752.28;4985846;28;20565;-73
2021/04/19 09:18:53;;;;;;;32.53;16.88;;;;;;;7.12;81.60;98747.06;4986019;28;20492;-73
2021/04/19 09:21:49;;;;;;;37.35;19.80;;;;;;;7.12;81.50;98750.50;4983273;28;20029;-73
2021/04/19 09:24:23;;;;;;;35.73;19.43;;;;;;;7.06;81.32;98748.03;4983336;28;20026;-73
2021/04/19 09:26:53;;;;;;;32.70;17.85;;;;;;;7.22;81.19;98752.00;4984563;28;20268;-73
2021/04/19 09:29:24;;;;;;;31.38;17.85;;;;;;;7.35;81.62;98750.84;4977917;28;20038;-73
2021/04/19 09:32:07;;;;;;;30.98;15.80;;;;;;;7.35;80.04;98756.06;4986409;28;20038;-73
2021/04/19 09:34:44;;;;;;;30.67;16.75;;;;;;;7.47;81.09;98754.09;4993390;28;20042;-73
2021/04/19 09:37:21;;;;;;;41.92;21.77;;;;;;;7.31;80.76;98749.22;4994059;28;20113;-73
2021/04/19 09:40:21;;;;;;;36.20;19.83;;;;;;;7.39;80.51;98757.72;4996035;28;20034;-73
2021/04/19 09:43:05;;;;;;;32.22;16.67;;;;;;;7.49;80.24;98760.94;4989948;28;20121;-74
2021/04/19 09:45:44;;;;;;;31.58;18.70;;;;;;;7.66;80.51;98758.81;4993732;28;20050;-73
2021/04/19 09:48:27;;;;;;;28.40;17.55;;;;;;;7.73;80.45;98757.78;4993573;28;20026;-73
2021/04/19 09:50:58;;;;;;;30.88;17.75;;;;;;;7.58;80.16;98752.09;4993484;28;20030;-73
2021/04/19 09:53:25;;;;;;;30.27;16.08;;;;;;;7.53;80.67;98751.31;4992916;28;20022;-73
2021/04/19 09:55:51;;;;;;;36.85;18.08;;;;;;;7.52;80.68;98754.81;4998397;28;20057;-74
2021/04/19 09:58:20;;;;;;;30.23;17.23;;;;;;;7.55;79.67;98752.16;4991110;28;20077;-73
2021/04/19 10:00:54;;;;;;;30.35;16.25;;;;;;;7.43;79.55;98747.25;4988136;28;20019;-73
2021/04/19 10:03:19;;;;;;;32.10;17.80;;;;;;;7.72;79.43;98748.28;4974582;28;20034;-73
2021/04/19 10:05:45;;;;;;;39.03;20.60;;;;;;;7.67;78.88;98755.31;4982761;28;20485;-73
2021/04/19 10:08:14;;;;;;;33.60;17.90;;;;;;;7.76;80.38;98746.44;4982594;28;20035;-73
2021/04/19 10:10:40;;;;;;;31.70;17.85;;;;;;;7.89;79.73;98752.22;4983522;28;20029;-74
2021/04/19 10:13:06;;;;;;;30.60;18.13;;;;;;;7.75;77.74;98752.56;4987592;28;20069;-74
2021/04/19 10:15:31;;;;;;;33.47;18.25;;;;;;;7.85;76.73;98747.97;4988976;28;20310;-73
2021/04/19 10:17:59;;;;;;;34.35;17.83;;;;;;;7.94;76.78;98751.22;4994567;28;20022;-73
2021/04/19 10:20:28;;;;;;;33.00;18.77;;;;;;;8.04;77.18;98747.47;4992228;28;20080;-73
2021/04/19 10:23:11;;;;;;;33.10;17.58;;;;;;;8.29;78.28;98746.84;4986312;28;20500;-73
2021/04/19 10:25:51;;;;;;;34.20;20.02;;;;;;;8.41;77.20;98741.34;4979876;28;20033;-74
2021/04/19 10:28:42;;;;;;;33.97;18.50;;;;;;;8.62;76.62;98743.38;4985614;28;20030;-73
2021/04/19 10:31:12;;;;;;;28.95;16.83;;;;;;;8.90;77.29;98737.38;4977294;28;20396;-73
2021/04/19 10:33:39;;;;;;;32.72;16.75;;;;;;;9.07;75.13;98738.59;4990221;28;20050;-74
2021/04/19 10:36:11;;;;;;;29.60;17.05;;;;;;;9.37;76.32;98731.59;4988386;28;20065;-73
2021/04/19 10:38:38;;;;;;;30.38;17.60;;;;;;;9.43;74.00;98731.44;4991363;28;20069;-74
2021/04/19 10:41:04;;;;;;;36.30;18.23;;;;;;;9.53;72.74;98726.78;4989946;28;20109;-73
2021/04/19 10:43:30;;;;;;;32.03;17.80;;;;;;;9.34;72.75;98723.88;4988513;28;20260;-73
2021/04/19 10:45:55;;;;;;;29.50;16.67;;;;;;;9.61;72.22;98731.75;4989555;28;20113;-73
2021/04/19 10:48:23;;;;;;;29.23;16.98;;;;;;;10.06;70.47;98726.81;4991461;28;20034;-74
2021/04/19 10:50:51;;;;;;;31.38;16.55;;;;;;;9.99;70.67;98718.28;4988262;28;20029;-73
2021/04/19 10:53:41;;;;;;;28.35;15.77;;;;;;;9.71;70.63;98722.72;4990610;28;20026;-74
2021/04/19 10:56:08;;;;;;;25.92;15.25;;;;;;;9.70;72.13;98729.69;4988721;28;20079;-73
2021/04/19 10:58:35;;;;;;;26.88;16.05;;;;;;;8.97;70.85;98725.88;4988195;28;20088;-73
2021/04/19 11:01:02;;;;;;;26.88;15.32;;;;;;;9.38;72.67;98722.88;4992052;28;20026;-75
2021/04/19 11:03:37;;;;;;;25.85;14.77;;;;;;;9.74;71.99;98720.03;4990706;28;20071;-73
2021/04/19 11:06:10;;;;;;;25.77;15.63;;;;;;;9.81;71.49;98711.91;4993604;28;20034;-74
2021/04/19 11:08:45;;;;;;;28.58;16.38;;;;;;;9.83;71.40;98715.34;4988952;28;20284;-73
2021/04/19 11:11:28;;;;;;;26.55;16.42;;;;;;;9.60;71.77;98714.38;4986361;28;20559;-74
2021/04/19 11:14:06;;;;;;;28.65;16.60;;;;;;;9.72;71.57;98714.00;4984462;28;20041;-74
2021/04/19 11:16:32;;;;;;;27.42;16.67;;;;;;;9.46;71.53;98720.03;4987631;28;20044;-73
2021/04/19 11:18:58;;;;;;;29.95;16.50;;;;;;;9.52;70.52;98715.47;4986369;28;20032;-74
2021/04/19 11:21:41;;;;;;;25.88;15.07;;;;;;;9.74;73.04;98717.41;4991393;28;20189;-73
2021/04/19 11:24:08;;;;;;;24.55;13.45;;;;;;;9.95;71.73;98713.22;4990499;28;20399;-73
2021/04/19 11:26:34;;;;;;;29.77;17.35;;;;;;;9.78;70.56;98716.38;4987170;28;20714;-73
2021/04/19 11:29:00;;;;;;;29.60;16.58;;;;;;;9.50;70.33;98714.66;4983098;28;20380;-73
2021/04/19 11:31:37;;;;;;;28.48;15.88;;;;;;;9.70;70.64;98711.41;4988167;28;20026;-73
2021/04/19 11:34:10;;;;;;;25.95;15.70;;;;;;;9.80;72.08;98710.22;4984804;28;20432;-73
2021/04/19 11:36:41;;;;;;;26.77;16.30;;;;;;;9.76;73.75;98711.22;4987349;28;20053;-73
2021/04/19 11:39:16;;;;;;;26.13;14.15;;;;;;;9.91;72.21;98712.50;4982819;28;20034;-73
2021/04/19 11:41:43;;;;;;;28.60;16.35;;;;;;;9.62;70.22;98707.38;4985271;28;20134;-73
2021/04/19 11:44:09;;;;;;;26.43;15.60;;;;;;;9.69;71.03;98708.84;4987526;28;20029;-73